Terminal Aerodrome Forecast
Issued by NWS Newport/Morehead City, NC

Home | Current Version | Previous Version | Text Only | Print | Product List | Glossary On
Versions: 1 2 3 4 5 6 7 8 9 10 11 12 13 14
000
FTUS42 KMHX 221721
TAFEWN
TAF
KEWN 221721Z 2218/2318 14006KT P6SM SCT050 BKN150
     FM230900 00000KT 3SM BR SCT050 BKN150
     FM231300 13006KT P6SM SCT050 BKN120=

USA.gov is the U.S. government's official web portal to all federal, state and local government web resources and services.